Time;durP1;ratioP1;P1;durP2;ratioP2;P2;SDS_P1;SDS_P2;PMS_P1;PMS_P2;Temp;Humidity;BMP_temperature;BMP_pressure;BME280_temperature;BME280_humidity;BME280_pressure;Samples;Min_cycle;Max_cycle;Signal;HPM_P1;HPM_P2
2022/02/06 00:00:14;;;;;;;;;;;;;;;1.65;59.27;100529.75;4305013;33;20000;-82
2022/02/06 00:02:43;;;;;;;;;;;;;;;1.64;59.27;100535.72;4318162;33;19984;-83
2022/02/06 00:05:10;;;;;;;;;;;;;;;1.74;59.27;100525.66;4305510;33;20343;-82
2022/02/06 00:07:35;;;;;;;;;;;;;;;1.70;59.27;100517.88;4316937;33;20338;-83
2022/02/06 00:10:01;;;;;;;;;;;;;;;1.71;59.27;100520.47;4317892;33;26820;-83
2022/02/06 00:12:27;;;;;;;;;;;;;;;1.60;59.26;100508.28;4318409;33;19996;-82
2022/02/06 00:14:53;;;;;;;;;;;;;;;1.52;59.26;100516.72;4305212;33;19981;-83
2022/02/06 00:17:18;;;;;;;;;;;;;;;1.60;59.27;100513.41;4305024;33;19983;-83
2022/02/06 00:19:43;;;;;;;;;;;;;;;1.59;59.27;100509.13;4304843;33;20338;-84
2022/02/06 00:22:12;;;;;;;;;;;;;;;1.63;59.27;100504.06;4318592;33;20348;-84
2022/02/06 00:24:47;;;;;;;;;;;;;;;1.31;59.24;100505.25;4304485;33;19976;-83
2022/02/06 00:27:25;;;;;;;;;;;;;;;1.26;59.25;100507.72;4318521;33;20003;-82
2022/02/06 00:30:02;;;;;;;;;;;;;;;1.24;59.24;100511.97;4318360;33;19984;-83
2022/02/06 00:32:37;;;;;;;;;;;;;;;1.40;59.26;100511.37;4317087;33;19999;-83
2022/02/06 00:40:34;;;;;;;;;;;;;;;1.13;59.24;100508.34;4318455;33;20003;-82
2022/02/06 00:43:00;;;;;;;;;;;;;;;1.30;59.25;100530.03;4318454;33;19976;-83
2022/02/06 00:45:25;;;;;;;;;;;;;;;1.36;59.25;100536.94;4318469;33;19972;-82
2022/02/06 00:47:50;;;;;;;;;;;;;;;1.14;59.24;100517.75;4316254;33;30910;-83
2022/02/06 00:50:15;;;;;;;;;;;;;;;1.31;59.24;100528.31;4304321;33;25347;-83
2022/02/06 00:52:51;;;;;;;;;;;;;;;1.13;59.24;100527.16;4318374;33;20010;-83
2022/02/06 00:55:17;;;;;;;;;;;;;;;1.24;59.24;100524.78;4306299;33;19972;-83
2022/02/06 00:57:42;;;;;;;;;;;;;;;1.23;59.24;100511.09;4318345;33;20031;-83
2022/02/06 01:00:08;;;;;;;;;;;;;;;1.33;59.24;100516.38;4304406;33;30359;-84
2022/02/06 01:02:33;;;;;;;;;;;;;;;1.64;59.27;100505.78;4304956;33;19991;-83
2022/02/06 01:04:58;;;;;;;;;;;;;;;1.42;59.25;100501.13;4317675;33;28803;-83
2022/02/06 01:07:23;;;;;;;;;;;;;;;1.12;59.24;100496.34;4304477;33;23613;-84
2022/02/06 01:09:49;;;;;;;;;;;;;;;1.24;59.24;100486.31;4318305;33;20008;-84
2022/02/06 01:12:19;;;;;;;;;;;;;;;1.20;59.24;100489.69;4318325;33;20016;-83
2022/02/06 01:15:00;;;;;;;;;;;;;;;1.11;59.24;100495.47;4305442;33;20044;-84
2022/02/06 01:17:32;;;;;;;;;;;;;;;0.98;59.23;100501.25;4318156;33;20040;-84
2022/02/06 01:20:14;;;;;;;;;;;;;;;1.08;59.23;100481.75;4305441;33;19992;-84
2022/02/06 01:22:48;;;;;;;;;;;;;;;1.11;59.24;100492.91;4318151;33;20663;-85
2022/02/06 01:25:19;;;;;;;;;;;;;;;1.09;59.23;100478.34;4318173;33;19976;-83
2022/02/06 01:27:53;;;;;;;;;;;;;;;1.08;59.23;100479.19;4318085;33;20007;-84
2022/02/06 01:30:23;;;;;;;;;;;;;;;1.23;59.24;100472.62;4318129;33;20101;-83
2022/02/06 01:32:57;;;;;;;;;;;;;;;1.12;59.24;100471.56;4305258;33;19994;-84
2022/02/06 01:35:47;;;;;;;;;;;;;;;0.91;59.23;100477.16;4305166;33;20028;-83
2022/02/06 01:41:03;;;;;;;;;;;;;;;0.98;59.23;100464.50;4304669;33;20000;-83
2022/02/06 01:43:24;;;;;;;;;;;;;;;0.74;59.21;100468.31;4306481;33;19976;-83
2022/02/06 02:05:36;;;;;;;;;;;;;;;0.71;59.21;100416.13;4306329;33;20011;-85
2022/02/06 02:13:16;;;;;;;;;;;;;;;0.71;59.21;100422.16;4305094;33;20342;-85
2022/02/06 02:47:19;;;;;;;;;;;;;;;0.46;59.20;100419.94;4318115;33;20042;-85
2022/02/06 02:49:52;;;;;;;;;;;;;;;0.53;59.21;100414.13;4317843;33;20018;-85
2022/02/06 03:00:33;;;;;;;;;;;;;;;0.47;59.20;100390.94;4306089;33;19988;-85
2022/02/06 03:03:10;;;;;;;;;;;;;;;0.35;59.19;100399.25;4294308;33;20048;-85
2022/02/06 03:05:36;;;;;;;;;;;;;;;0.20;59.18;100394.69;4306966;33;20003;-86
2022/02/06 03:08:04;;;;;;;;;;;;;;;0.33;59.19;100403.47;4305453;33;20033;-85
2022/02/06 03:10:33;;;;;;;;;;;;;;;0.19;59.18;100392.94;4305688;33;19980;-84
2022/02/06 03:13:00;;;;;;;;;;;;;;;0.05;59.17;100391.84;4319099;33;20015;-84
2022/02/06 03:16:04;;;;;;;;;;;;;;;0.09;59.17;100390.19;4305783;33;19993;-85
2022/02/06 03:18:20;;;;;;;;;;;;;;;0.16;59.18;100381.78;4318008;33;20640;-84
2022/02/06 03:20:49;;;;;;;;;;;;;;;0.13;59.18;100390.28;4305914;33;20040;-84
2022/02/06 03:23:15;;;;;;;;;;;;;;;0.13;59.18;100400.53;4305311;33;20064;-84
2022/02/06 03:25:48;;;;;;;;;;;;;;;0.16;59.18;100399.72;4305739;33;19988;-84
2022/02/06 03:28:14;;;;;;;;;;;;;;;0.09;59.18;100398.72;4318944;33;19980;-84
2022/02/06 03:30:39;;;;;;;;;;;;;;;0.04;59.17;100394.38;4318938;33;20038;-84
2022/02/06 03:33:04;;;;;;;;;;;;;;;-0.17;59.16;100385.41;4318725;33;20342;-84
2022/02/06 03:35:29;;;;;;;;;;;;;;;-0.08;59.16;100388.12;4318536;33;20547;-85
2022/02/06 03:37:55;;;;;;;;;;;;;;;-0.13;59.17;100387.19;4317394;33;19988;-84
2022/02/06 03:40:24;;;;;;;;;;;;;;;-0.15;59.16;100388.00;4304601;33;32226;-84
2022/02/06 03:43:10;;;;;;;;;;;;;;;-0.25;59.16;100378.38;4318842;33;20631;-84
2022/02/06 03:45:46;;;;;;;;;;;;;;;-0.30;59.15;100375.72;4305147;33;20007;-84
2022/02/06 03:50:45;;;;;;;;;;;;;;;-0.47;59.14;100377.06;4318969;33;20044;-84
2022/02/06 03:53:12;;;;;;;;;;;;;;;-0.56;59.14;100372.59;4306136;33;20003;-85
2022/02/06 03:55:37;;;;;;;;;;;;;;;-0.47;59.14;100367.69;4305476;33;20009;-85
2022/02/06 03:58:02;;;;;;;;;;;;;;;-0.31;59.15;100358.66;4305170;33;20246;-85
2022/02/06 04:00:27;;;;;;;;;;;;;;;-0.51;59.14;100362.47;4318282;33;26449;-85
2022/02/06 04:02:52;;;;;;;;;;;;;;;-0.45;59.14;100360.06;4304940;33;21922;-85
2022/02/06 04:05:18;;;;;;;;;;;;;;;-0.38;59.15;100355.09;4305368;33;20056;-85
2022/02/06 04:07:44;;;;;;;;;;;;;;;-0.40;59.15;100356.75;4318772;33;19976;-85
2022/02/06 04:10:12;;;;;;;;;;;;;;;-0.39;59.15;100358.50;4318694;33;20035;-85
2022/02/06 04:12:40;;;;;;;;;;;;;;;-0.46;59.14;100351.53;4305612;33;20007;-85
2022/02/06 04:15:11;;;;;;;;;;;;;;;-0.47;59.14;100354.91;4317366;33;19996;-85
2022/02/06 04:17:45;;;;;;;;;;;;;;;-0.40;59.15;100345.66;4305796;33;19988;-85
2022/02/06 04:20:10;;;;;;;;;;;;;;;-0.33;59.15;100338.16;4305055;33;19999;-85
2022/02/06 04:22:35;;;;;;;;;;;;;;;-0.37;59.15;100338.06;4304913;33;20024;-85
2022/02/06 04:25:00;;;;;;;;;;;;;;;-0.34;59.15;100322.78;4304541;33;22343;-85
2022/02/06 04:27:26;;;;;;;;;;;;;;;-0.62;59.13;100324.75;4305246;33;19976;-85
2022/02/06 04:29:53;;;;;;;;;;;;;;;-0.60;59.13;100318.78;4318350;33;22220;-86
2022/02/06 04:32:18;;;;;;;;;;;;;;;-0.45;59.14;100311.47;4318533;33;19984;-85
2022/02/06 04:34:43;;;;;;;;;;;;;;;-0.52;59.13;100319.81;4304869;33;19995;-86
2022/02/06 05:14:27;;;;;;;;;;;;;;;-0.58;59.13;100314.59;4318253;33;20314;-84
2022/02/06 05:32:57;;;;;;;;;;;;;;;-0.51;59.13;100306.19;4306134;33;19988;-84
2022/02/06 05:35:23;;;;;;;;;;;;;;;-0.56;59.14;100295.88;4308278;33;20012;-84
2022/02/06 05:37:48;;;;;;;;;;;;;;;-0.66;59.13;100296.53;4304766;33;20262;-82
2022/02/06 05:40:13;;;;;;;;;;;;;;;-0.44;59.14;100302.97;4317405;33;28692;-82
2022/02/06 05:42:39;;;;;;;;;;;;;;;-0.24;59.16;100301.66;4317378;33;30212;-82
2022/02/06 05:45:04;;;;;;;;;;;;;;;-0.38;59.15;100298.84;4304418;33;20029;-84
2022/02/06 05:47:29;;;;;;;;;;;;;;;-0.43;59.15;100297.03;4318065;33;20353;-82
2022/02/06 05:49:55;;;;;;;;;;;;;;;-0.38;59.14;100295.41;4328882;33;19988;-83
2022/02/06 05:52:20;;;;;;;;;;;;;;;-0.33;59.15;100296.38;4292413;33;19984;-84
2022/02/06 05:54:45;;;;;;;;;;;;;;;-0.11;59.17;100295.09;4317665;33;20335;-83
2022/02/06 05:57:11;;;;;;;;;;;;;;;-0.13;59.17;100299.31;4304281;33;20339;-83
2022/02/06 05:59:36;;;;;;;;;;;;;;;-0.18;59.16;100291.56;4303567;33;28164;-83
2022/02/06 06:02:01;;;;;;;;;;;;;;;-0.17;59.16;100293.28;4317734;33;19972;-82
2022/02/06 06:04:26;;;;;;;;;;;;;;;-0.18;59.16;100288.16;4304190;33;20018;-84
2022/02/06 06:06:51;;;;;;;;;;;;;;;-0.13;59.16;100291.66;4304159;33;20003;-84
2022/02/06 06:09:17;;;;;;;;;;;;;;;-0.09;59.16;100290.88;4316920;33;29879;-85
2022/02/06 06:11:42;;;;;;;;;;;;;;;-0.12;59.17;100285.69;4317659;33;19996;-84
2022/02/06 06:14:07;;;;;;;;;;;;;;;0.06;59.17;100288.63;4315799;33;26184;-83
2022/02/06 06:16:34;;;;;;;;;;;;;;;0.09;59.17;100291.22;4317335;33;22361;-83
2022/02/06 06:19:00;;;;;;;;;;;;;;;0.21;59.18;100291.44;4317320;33;19980;-83
2022/02/06 06:21:26;;;;;;;;;;;;;;;0.27;59.19;100288.16;4317472;33;19976;-84
2022/02/06 06:23:54;;;;;;;;;;;;;;;0.34;59.19;100287.41;4303985;33;20019;-84
2022/02/06 06:26:21;;;;;;;;;;;;;;;0.42;59.19;100290.09;4304297;33;20034;-85
2022/02/06 06:28:46;;;;;;;;;;;;;;;0.29;59.18;100281.34;4292249;33;19980;-85
2022/02/06 06:31:11;;;;;;;;;;;;;;;0.53;59.21;100288.59;4303385;33;31573;-85
2022/02/06 06:33:37;;;;;;;;;;;;;;;0.45;59.20;100290.16;4303999;33;20031;-85
2022/02/06 06:36:03;;;;;;;;;;;;;;;0.44;59.19;100280.75;4304070;33;20359;-85
2022/02/06 06:38:28;;;;;;;;;;;;;;;0.53;59.21;100275.81;4304128;33;19987;-84
2022/02/06 06:40:53;;;;;;;;;;;;;;;0.60;59.21;100268.22;4317263;33;20304;-85
2022/02/06 06:43:19;;;;;;;;;;;;;;;0.75;59.21;100262.50;4317385;33;20039;-85
2022/02/06 06:45:44;;;;;;;;;;;;;;;0.78;59.22;100270.22;4317507;33;19977;-85
2022/02/06 06:48:09;;;;;;;;;;;;;;;0.81;59.21;100267.72;4317432;33;20015;-85
2022/02/06 06:50:34;;;;;;;;;;;;;;;0.81;59.21;100272.84;4303534;33;27800;-84
2022/02/06 06:53:00;;;;;;;;;;;;;;;1.00;59.23;100271.44;4303941;33;20018;-85
2022/02/06 06:55:27;;;;;;;;;;;;;;;1.10;59.23;100273.28;4317410;33;19996;-85
2022/02/06 06:58:03;;;;;;;;;;;;;;;1.04;59.24;100269.75;4304014;33;19988;-85
2022/02/06 07:00:55;;;;;;;;;;;;;;;1.07;59.23;100260.41;4304974;33;19972;-84
2022/02/06 07:03:24;;;;;;;;;;;;;;;1.18;59.23;100250.28;4317185;33;19985;-85
2022/02/06 07:05:49;;;;;;;;;;;;;;;1.43;59.26;100251.50;4303776;33;20028;-84
2022/02/06 07:08:15;;;;;;;;;;;;;;;1.53;59.26;100243.94;4289789;33;29446;-85
2022/02/06 07:10:41;;;;;;;;;;;;;;;1.62;59.26;100250.00;4303350;33;19980;-85
2022/02/06 07:13:06;;;;;;;;;;;;;;;1.71;59.27;100239.88;4291442;33;20027;-85
2022/02/06 07:15:31;;;;;;;;;;;;;;;1.72;59.27;100241.59;4316083;33;29875;-86
2022/02/06 07:17:58;;;;;;;;;;;;;;;1.69;59.27;100231.31;4314701;33;33193;-85
2022/02/06 07:20:23;;;;;;;;;;;;;;;1.82;59.27;100234.00;4315557;33;20039;-84
2022/02/06 07:22:48;;;;;;;;;;;;;;;2.00;59.29;100232.50;4291181;33;20288;-84
2022/02/06 07:25:13;;;;;;;;;;;;;;;2.14;59.29;100229.22;4290891;33;19995;-84
2022/02/06 07:27:43;;;;;;;;;;;;;;;2.13;59.30;100227.50;4302978;33;20052;-83
2022/02/06 07:30:08;;;;;;;;;;;;;;;2.28;59.31;100224.19;4290958;33;19999;-83
2022/02/06 07:32:36;;;;;;;;;;;;;;;2.46;59.31;100218.38;4316794;33;20003;-85
2022/02/06 07:35:01;;;;;;;;;;;;;;;2.63;59.32;100224.50;4305456;33;20040;-85
2022/02/06 07:37:26;;;;;;;;;;;;;;;2.75;59.33;100216.00;4318828;33;20040;-85
2022/02/06 07:39:51;;;;;;;;;;;;;;;2.84;59.34;100215.19;4318424;33;22877;-85
2022/02/06 07:42:16;;;;;;;;;;;;;;;2.94;59.35;100228.13;4318886;33;20670;-85
2022/02/06 07:44:46;;;;;;;;;;;;;;;3.17;59.34;100212.00;4318420;33;19988;-85
2022/02/06 07:47:14;;;;;;;;;;;;;;;3.19;59.36;100221.44;4318699;33;19996;-86
2022/02/06 07:49:40;;;;;;;;;;;;;;;3.25;59.36;100220.59;4305212;33;20409;-86
2022/02/06 07:52:05;;;;;;;;;;;;;;;3.36;59.36;100221.53;4305242;33;19993;-85
2022/02/06 07:54:31;;;;;;;;;;;;;;;3.51;59.37;100224.13;4317392;33;19988;-86
2022/02/06 07:56:56;;;;;;;;;;;;;;;3.50;59.37;100219.84;4304566;33;22728;-85
2022/02/06 07:59:21;;;;;;;;;;;;;;;3.47;59.37;100235.28;4304543;33;20770;-85
2022/02/06 08:01:46;;;;;;;;;;;;;;;3.52;59.37;100222.44;4318257;33;19984;-85
2022/02/06 08:04:11;;;;;;;;;;;;;;;3.78;59.39;100231.09;4305068;33;20004;-85
2022/02/06 08:06:37;;;;;;;;;;;;;;;3.99;59.41;100220.00;4316900;33;20032;-85
2022/02/06 08:09:03;;;;;;;;;;;;;;;4.25;59.41;100215.75;4304882;33;19964;-85
2022/02/06 08:11:28;;;;;;;;;;;;;;;4.33;59.42;100215.78;4292899;33;19992;-85
2022/02/06 08:13:56;;;;;;;;;;;;;;;4.24;59.41;100214.03;4317816;33;25317;-86
2022/02/06 08:16:21;;;;;;;;;;;;;;;4.44;59.42;100211.47;4318611;33;20439;-85
2022/02/06 08:18:46;;;;;;;;;;;;;;;4.67;59.44;100203.72;4317915;33;29476;-85
2022/02/06 08:21:12;;;;;;;;;;;;;;;4.92;59.45;100197.66;4304873;33;20023;-85
2022/02/06 08:23:37;;;;;;;;;;;;;;;5.37;59.47;100193.25;4305121;33;20311;-85
2022/02/06 08:26:02;;;;;;;;;;;;;;;5.59;59.49;100183.69;4292535;33;20259;-84
2022/02/06 08:28:28;;;;;;;;;;;;;;;5.75;59.50;100187.91;4318170;33;19964;-85
2022/02/06 08:30:53;;;;;;;;;;;;;;;6.13;59.51;100179.06;4304593;33;20012;-84
2022/02/06 08:33:18;;;;;;;;;;;;;;;6.36;59.54;100179.75;4304711;33;19992;-84
2022/02/06 08:35:45;;;;;;;;;;;;;;;6.38;59.53;100174.56;4317815;33;21907;-85
2022/02/06 08:38:11;;;;;;;;;;;;;;;6.55;59.55;100170.13;4318273;33;19986;-85
2022/02/06 08:40:36;;;;;;;;;;;;;;;6.66;59.56;100173.50;4304895;33;20003;-84
2022/02/06 08:43:02;;;;;;;;;;;;;;;6.81;59.56;100164.69;4317886;33;19973;-84
2022/02/06 08:45:29;;;;;;;;;;;;;;;6.94;59.57;100161.12;4317311;33;19980;-84
2022/02/06 08:47:55;;;;;;;;;;;;;;;7.15;59.58;100157.44;4318445;33;19972;-83
2022/02/06 08:50:20;;;;;;;;;;;;;;;7.35;59.59;100152.03;4316277;33;29958;-84
2022/02/06 08:52:45;;;;;;;;;;;;;;;7.47;59.60;100154.44;4304863;33;20011;-84
2022/02/06 08:55:12;;;;;;;;;;;;;;;7.49;59.60;100152.69;4318150;33;19996;-84
2022/02/06 08:57:43;;;;;;;;;;;;;;;7.64;59.60;100152.50;4304734;33;20016;-84
2022/02/06 09:00:09;;;;;;;;;;;;;;;7.68;59.61;100149.00;4318008;33;20345;-84
2022/02/06 09:02:34;;;;;;;;;;;;;;;7.95;59.62;100159.84;4317862;33;19989;-83
2022/02/06 09:04:59;;;;;;;;;;;;;;;7.99;59.63;100164.94;4303930;33;28849;-83
2022/02/06 09:07:24;;;;;;;;;;;;;;;8.25;59.64;100158.50;4317545;33;20327;-84
2022/02/06 09:09:56;;;;;;;;;;;;;;;8.44;59.66;100149.56;4317387;33;22175;-84
2022/02/06 09:12:21;;;;;;;;;;;;;;;8.56;59.65;100143.34;4317540;33;20402;-83
2022/02/06 09:14:48;;;;;;;;;;;;;;;8.79;59.67;100133.41;4304281;33;19999;-84
2022/02/06 09:17:13;;;;;;;;;;;;;;;8.79;59.67;100130.81;4303553;33;19980;-83
2022/02/06 09:19:39;;;;;;;;;;;;;;;8.83;59.68;100124.66;4316371;33;20039;-83
2022/02/06 09:22:05;;;;;;;;;;;;;;;8.76;59.67;100120.47;4316900;33;19998;-82
2022/02/06 09:24:30;;;;;;;;;;;;;;;9.04;59.69;100118.19;4303803;33;20024;-84
2022/02/06 09:26:55;;;;;;;;;;;;;;;9.10;59.68;100125.84;4317677;33;19998;-83
2022/02/06 09:29:24;;;;;;;;;;;;;;;9.23;59.70;100131.69;4304549;33;20376;-82
2022/02/06 09:31:51;;;;;;;;;;;;;;;9.20;59.69;100131.72;4317967;33;20004;-83
2022/02/06 09:36:43;;;;;;;;;;;;;;;9.53;59.71;100120.62;4304191;33;20346;-83
2022/02/06 09:39:09;;;;;;;;;;;;;;;9.66;59.72;100113.41;4317615;33;20047;-84
2022/02/06 09:41:34;;;;;;;;;;;;;;;9.54;59.71;100114.53;4304222;33;19988;-84
2022/02/06 09:44:00;;;;;;;;;;;;;;;9.39;59.70;100101.87;4304061;33;20000;-83
2022/02/06 09:46:25;;;;;;;;;;;;;;;9.46;59.71;100106.06;4304256;33;19987;-84
2022/02/06 09:48:51;;;;;;;;;;;;;;;9.59;59.72;100100.59;4303755;33;31799;-82
2022/02/06 09:51:16;;;;;;;;;;;;;;;9.57;59.71;100097.16;4292408;33;20365;-82
2022/02/06 09:53:41;;;;;;;;;;;;;;;9.72;59.73;100095.09;4303463;33;28010;-82
2022/02/06 09:56:12;;;;;;;;;;;;;;;9.83;59.73;100090.47;4303267;33;20296;-84
2022/02/06 10:01:09;;;;;;;;;;;;;;;9.80;59.73;100074.97;4303924;33;20247;-83
2022/02/06 10:03:36;;;;;;;;;;;;;;;9.74;59.73;100074.25;4317607;33;19977;-82
2022/02/06 10:06:01;;;;;;;;;;;;;;;9.81;59.73;100068.00;4317555;33;20031;-83
2022/02/06 10:08:38;;;;;;;;;;;;;;;9.85;59.73;100067.91;4316091;33;20039;-82
2022/02/06 10:11:06;;;;;;;;;;;;;;;9.85;59.73;100061.84;4317335;33;20028;-82
2022/02/06 10:13:34;;;;;;;;;;;;;;;9.80;59.73;100053.31;4317579;33;19988;-82
2022/02/06 10:15:59;;;;;;;;;;;;;;;10.09;59.75;100058.63;4304251;33;19976;-83
2022/02/06 10:18:25;;;;;;;;;;;;;;;10.27;59.75;100048.69;4315228;33;24526;-81
2022/02/06 10:20:50;;;;;;;;;;;;;;;10.37;59.76;100042.34;4315665;33;19992;-83
2022/02/06 10:23:38;;;;;;;;;;;;;;;10.52;59.76;100036.75;4296640;33;20010;-82
2022/02/06 10:26:09;;;;;;;;;;;;;;;10.57;59.77;100027.06;4305329;33;20032;-84
2022/02/06 10:31:03;;;;;;;;;;;;;;;10.81;59.78;100015.09;4317496;33;19988;-83
2022/02/06 10:33:42;;;;;;;;;;;;;;;10.80;59.78;100007.31;4303683;33;19979;-81
2022/02/06 10:36:07;;;;;;;;;;;;;;;10.71;59.78;100006.72;4317186;33;20006;-84
2022/02/06 10:38:33;;;;;;;;;;;;;;;10.84;59.79;99991.56;4316725;33;20023;-83
2022/02/06 10:41:04;;;;;;;;;;;;;;;10.93;59.79;99990.47;4317295;33;20275;-83
2022/02/06 10:43:30;;;;;;;;;;;;;;;10.97;59.79;99986.88;4317063;33;20067;-82
2022/02/06 10:46:08;;;;;;;;;;;;;;;10.98;59.79;99972.94;4303669;33;20000;-84
2022/02/06 10:48:33;;;;;;;;;;;;;;;11.05;59.80;99977.91;4303253;33;20051;-83
2022/02/06 10:50:59;;;;;;;;;;;;;;;11.18;59.81;99964.53;4303755;33;20270;-84
2022/02/06 10:53:24;;;;;;;;;;;;;;;11.31;59.81;99955.41;4316677;33;19995;-84
2022/02/06 10:55:50;;;;;;;;;;;;;;;11.34;59.82;99947.47;4316939;33;20105;-84
2022/02/06 10:58:16;;;;;;;;;;;;;;;11.42;59.82;99944.66;4315750;33;20035;-84
2022/02/06 11:00:41;;;;;;;;;;;;;;;11.38;59.82;99938.69;4303541;33;20003;-84
2022/02/06 11:03:33;;;;;;;;;;;;;;;11.42;59.82;99940.28;4302688;33;30372;-83
2022/02/06 11:06:10;;;;;;;;;;;;;;;11.31;59.82;99939.78;4317212;33;19976;-84
2022/02/06 11:08:37;;;;;;;;;;;;;;;11.52;59.82;99927.78;4305817;33;20003;-84
2022/02/06 11:11:03;;;;;;;;;;;;;;;11.68;59.84;99908.16;4291406;33;20011;-84
2022/02/06 11:13:28;;;;;;;;;;;;;;;11.80;59.84;99904.28;4290882;33;19988;-84
2022/02/06 11:15:54;;;;;;;;;;;;;;;11.92;59.85;99894.28;4304670;33;19974;-84
2022/02/06 11:18:22;;;;;;;;;;;;;;;11.89;59.84;99899.63;4304623;33;20487;-84
2022/02/06 11:20:54;;;;;;;;;;;;;;;11.99;59.86;99889.69;4291222;33;20301;-84
2022/02/06 11:23:19;;;;;;;;;;;;;;;12.27;59.86;99879.97;4290444;33;20051;-84
2022/02/06 11:25:44;;;;;;;;;;;;;;;12.42;59.88;99870.72;4303595;33;29303;-84
2022/02/06 11:28:11;;;;;;;;;;;;;;;12.45;59.88;99865.38;4290668;33;20034;-84
2022/02/06 11:30:37;;;;;;;;;;;;;;;12.53;59.88;99860.72;4290750;33;20381;-84
2022/02/06 11:33:05;;;;;;;;;;;;;;;12.58;59.88;99850.09;4290906;33;19976;-83
2022/02/06 11:35:31;;;;;;;;;;;;;;;12.45;59.88;99843.66;4304151;33;19980;-83
2022/02/06 11:43:54;;;;;;;;;;;;;;;12.17;59.86;99841.22;4304038;33;20011;-84
2022/02/06 11:46:43;;;;;;;;;;;;;;;12.17;59.86;99830.78;4304040;33;19969;-84
2022/02/06 11:49:18;;;;;;;;;;;;;;;12.10;59.86;99818.87;4297829;33;19996;-83
2022/02/06 11:51:48;;;;;;;;;;;;;;;12.13;59.87;99826.59;4290496;33;20045;-84
2022/02/06 11:54:26;;;;;;;;;;;;;;;11.84;59.85;99814.62;4303970;33;19999;-83
2022/02/06 11:57:12;;;;;;;;;;;;;;;11.99;59.86;99809.69;4303934;33;19995;-84
2022/02/06 11:59:38;;;;;;;;;;;;;;;11.94;59.85;99801.19;4314858;33;20012;-84
2022/02/06 12:02:22;;;;;;;;;;;;;;;12.09;59.86;99785.88;4304224;33;20281;-82
2022/02/06 12:05:06;;;;;;;;;;;;;;;12.10;59.86;99782.34;4303917;33;20031;-84
2022/02/06 12:07:50;;;;;;;;;;;;;;;12.50;59.89;99779.87;4290319;33;19981;-84
2022/02/06 12:10:16;;;;;;;;;;;;;;;12.53;59.89;99776.31;4298619;33;20008;-82
2022/02/06 12:12:41;;;;;;;;;;;;;;;12.56;59.88;99765.75;4304370;33;20047;-82
2022/02/06 12:15:13;;;;;;;;;;;;;;;12.74;59.90;99758.94;4304531;33;19984;-82
2022/02/06 12:17:55;;;;;;;;;;;;;;;12.75;59.90;99748.41;4304754;33;20349;-83
2022/02/06 12:20:20;;;;;;;;;;;;;;;12.75;59.90;99729.28;4317106;33;19987;-83
2022/02/06 12:22:46;;;;;;;;;;;;;;;12.59;59.89;99732.53;4303579;33;20027;-83
2022/02/06 12:25:30;;;;;;;;;;;;;;;12.75;59.90;99719.69;4291662;33;19991;-83
2022/02/06 12:28:12;;;;;;;;;;;;;;;12.79;59.89;99708.22;4317542;33;20465;-83
2022/02/06 12:30:40;;;;;;;;;;;;;;;12.93;59.90;99699.78;4317537;33;20006;-83
2022/02/06 12:33:44;;;;;;;;;;;;;;;12.90;59.91;99700.78;4304637;33;20048;-83
2022/02/06 12:38:51;;;;;;;;;;;;;;;12.97;59.91;99683.06;4318084;33;20043;-82
2022/02/06 12:41:21;;;;;;;;;;;;;;;12.96;59.91;99673.53;4318013;33;20004;-84
2022/02/06 12:43:52;;;;;;;;;;;;;;;12.68;59.90;99680.84;4318254;33;20035;-84
2022/02/06 12:46:18;;;;;;;;;;;;;;;12.86;59.90;99686.16;4305121;33;19979;-84
2022/02/06 12:48:44;;;;;;;;;;;;;;;12.90;59.90;99685.09;4292766;33;19984;-84
2022/02/06 12:51:09;;;;;;;;;;;;;;;13.10;59.91;99681.63;4302800;33;28282;-85
2022/02/06 12:53:34;;;;;;;;;;;;;;;13.24;59.92;99675.81;4317566;33;26686;-83
2022/02/06 12:55:59;;;;;;;;;;;;;;;13.25;59.92;99674.94;4317588;33;20334;-83
2022/02/06 12:58:28;;;;;;;;;;;;;;;13.34;59.93;99663.22;4304711;33;20027;-83
2022/02/06 13:00:55;;;;;;;;;;;;;;;13.10;59.91;99652.88;4318011;33;20635;-81
2022/02/06 13:03:24;;;;;;;;;;;;;;;13.17;59.91;99640.38;4304864;33;20027;-83
2022/02/06 13:06:09;;;;;;;;;;;;;;;13.14;59.92;99644.00;4304766;33;19980;-83
2022/02/06 13:08:38;;;;;;;;;;;;;;;13.18;59.91;99642.13;4318040;33;20314;-83
2022/02/06 13:11:07;;;;;;;;;;;;;;;13.27;59.93;99633.88;4318153;33;20341;-83
2022/02/06 13:13:47;;;;;;;;;;;;;;;13.27;59.93;99640.88;4318095;33;20039;-83
2022/02/06 13:21:46;;;;;;;;;;;;;;;13.31;59.93;99611.91;4306608;33;20010;-83
2022/02/06 13:24:34;;;;;;;;;;;;;;;13.28;59.93;99601.59;4307189;33;20539;-83
2022/02/06 13:29:43;;;;;;;;;;;;;;;13.14;59.92;99603.94;4318005;33;20006;-83
2022/02/06 13:32:22;;;;;;;;;;;;;;;13.19;59.93;99595.00;4306066;33;19999;-83
2022/02/06 13:38:01;;;;;;;;;;;;;;;13.09;59.91;99583.25;4316883;33;20000;-83
2022/02/06 13:40:31;;;;;;;;;;;;;;;13.07;59.91;99576.41;4305209;33;20334;-83
2022/02/06 13:43:14;;;;;;;;;;;;;;;13.23;59.92;99573.94;4317986;33;20003;-83
2022/02/06 13:45:41;;;;;;;;;;;;;;;13.23;59.92;99571.34;4316608;33;20007;-84
2022/02/06 13:48:07;;;;;;;;;;;;;;;13.08;59.91;99573.72;4317668;33;19994;-83
2022/02/06 13:50:34;;;;;;;;;;;;;;;13.03;59.91;99564.41;4303935;33;19980;-83
2022/02/06 13:53:09;;;;;;;;;;;;;;;12.97;59.91;99564.66;4304673;33;19988;-83
2022/02/06 13:55:42;;;;;;;;;;;;;;;13.00;59.91;99565.34;4303751;33;20007;-83
2022/02/06 13:58:11;;;;;;;;;;;;;;;12.98;59.91;99550.66;4317709;33;19976;-83
2022/02/06 14:00:37;;;;;;;;;;;;;;;12.83;59.90;99537.38;4304245;33;20239;-83
2022/02/06 14:03:02;;;;;;;;;;;;;;;12.67;59.90;99527.69;4304212;33;20044;-83
2022/02/06 14:05:28;;;;;;;;;;;;;;;12.68;59.90;99524.16;4317856;33;19995;-83
2022/02/06 14:08:03;;;;;;;;;;;;;;;12.66;59.90;99520.75;4304438;33;19980;-83
2022/02/06 14:10:39;;;;;;;;;;;;;;;12.55;59.88;99519.47;4316043;33;19965;-83
2022/02/06 14:13:04;;;;;;;;;;;;;;;12.47;59.88;99513.72;4293164;33;19984;-84
2022/02/06 14:15:30;;;;;;;;;;;;;;;12.35;59.88;99522.09;4317359;33;20064;-84
2022/02/06 14:17:57;;;;;;;;;;;;;;;12.33;59.87;99517.88;4303461;33;20002;-83
2022/02/06 14:20:26;;;;;;;;;;;;;;;12.06;59.87;99493.75;4317522;33;19986;-84
2022/02/06 14:22:55;;;;;;;;;;;;;;;11.99;59.85;99491.41;4304421;33;20064;-83
2022/02/06 14:25:27;;;;;;;;;;;;;;;12.04;59.86;99495.59;4316083;33;20335;-83
2022/02/06 14:27:52;;;;;;;;;;;;;;;12.05;59.87;99485.09;4317387;33;19997;-83
2022/02/06 14:30:42;;;;;;;;;;;;;;;12.16;59.86;99482.87;4317243;33;19996;-83
2022/02/06 14:33:08;;;;;;;;;;;;;;;12.17;59.87;99475.91;4304006;33;19997;-82
2022/02/06 14:35:44;;;;;;;;;;;;;;;12.11;59.86;99481.41;4303974;33;20015;-83
2022/02/06 14:38:15;;;;;;;;;;;;;;;11.96;59.85;99483.72;4317077;33;19984;-83
2022/02/06 14:40:51;;;;;;;;;;;;;;;12.09;59.86;99480.63;4317517;33;20008;-83
2022/02/06 14:43:16;;;;;;;;;;;;;;;12.06;59.86;99476.34;4305946;33;20039;-83
2022/02/06 14:45:49;;;;;;;;;;;;;;;12.05;59.86;99474.66;4305462;33;20051;-82
2022/02/06 14:48:14;;;;;;;;;;;;;;;12.13;59.87;99472.59;4305719;33;20363;-83
2022/02/06 14:50:39;;;;;;;;;;;;;;;12.06;59.87;99467.69;4305694;33;19980;-83
2022/02/06 14:53:05;;;;;;;;;;;;;;;12.13;59.86;99464.75;4305474;33;20012;-83
2022/02/06 14:55:31;;;;;;;;;;;;;;;11.94;59.85;99474.28;4317658;33;20039;-83
2022/02/06 14:57:56;;;;;;;;;;;;;;;11.96;59.87;99481.13;4305532;33;19979;-83
2022/02/06 15:00:21;;;;;;;;;;;;;;;11.98;59.86;99483.66;4303954;33;25812;-83
2022/02/06 15:02:46;;;;;;;;;;;;;;;11.99;59.86;99478.38;4318189;33;19988;-82
2022/02/06 15:05:12;;;;;;;;;;;;;;;12.01;59.85;99467.03;4318797;33;20000;-83
2022/02/06 15:07:37;;;;;;;;;;;;;;;11.94;59.85;99464.69;4304747;33;30859;-83
2022/02/06 15:10:02;;;;;;;;;;;;;;;11.94;59.85;99467.28;4305152;33;20030;-82
2022/02/06 15:12:27;;;;;;;;;;;;;;;11.92;59.86;99461.28;4318825;33;20003;-83
2022/02/06 15:14:54;;;;;;;;;;;;;;;11.83;59.85;99460.81;4318658;33;20032;-83
2022/02/06 15:17:22;;;;;;;;;;;;;;;11.97;59.86;99459.34;4318800;33;19980;-83
2022/02/06 15:19:47;;;;;;;;;;;;;;;11.88;59.85;99456.28;4319049;33;19992;-83
2022/02/06 15:22:12;;;;;;;;;;;;;;;11.81;59.84;99453.06;4305432;33;20063;-82
2022/02/06 15:24:37;;;;;;;;;;;;;;;11.87;59.84;99450.22;4318210;33;26339;-82
2022/02/06 15:27:03;;;;;;;;;;;;;;;11.80;59.84;99443.53;4316596;33;31604;-82